Time;durP1;ratioP1;P1;durP2;ratioP2;P2;SDS_P1;SDS_P2;PMS_P1;PMS_P2;Temp;Humidity;BMP_temperature;BMP_pressure;BME280_temperature;BME280_humidity;BME280_pressure;Samples;Min_cycle;Max_cycle;Signal;HPM_P1;HPM_P2
2022/04/08 00:01:35;;;;;;;0.50;0.35;;;;;;;;;;5010020;28;20133;-80
2022/04/08 00:07:25;;;;;;;0.52;0.30;;;;;;;;;;5010711;28;20056;-81
2022/04/08 00:09:51;;;;;;;2.45;0.63;;;;;;;;;;5015243;28;20573;-79
2022/04/08 00:12:18;;;;;;;0.63;0.40;;;;;;;;;;5014290;28;20073;-81
2022/04/08 00:14:44;;;;;;;1.70;0.63;;;;;;;;;;5007900;28;20089;-81
2022/04/08 00:17:11;;;;;;;0.63;0.63;;;;;;;;;;5011910;28;20081;-81
2022/04/08 00:19:38;;;;;;;2.03;0.68;;;;;;;;;;5010675;28;20135;-81
2022/04/08 00:22:05;;;;;;;2.92;0.52;;;;;;;;;;5008805;28;20061;-81
2022/04/08 00:24:33;;;;;;;1.52;0.30;;;;;;;;;;5010531;28;20050;-81
2022/04/08 00:26:59;;;;;;;0.75;0.40;;;;;;;;;;5011151;28;20070;-81
2022/04/08 00:29:26;;;;;;;2.20;0.60;;;;;;;;;;5015038;28;20080;-81
2022/04/08 00:31:57;;;;;;;1.23;0.50;;;;;;;;;;5012099;28;20072;-82
2022/04/08 00:34:24;;;;;;;3.00;0.70;;;;;;;;;;5005426;28;20369;-81
2022/04/08 00:36:51;;;;;;;5.25;0.82;;;;;;;;;;5013673;28;20478;-82
2022/04/08 00:39:17;;;;;;;3.70;1.25;;;;;;;;;;5020363;28;20119;-81
2022/04/08 00:41:45;;;;;;;3.92;1.70;;;;;;;;;;5012623;28;20068;-81
2022/04/08 00:44:12;;;;;;;5.70;1.55;;;;;;;;;;5017156;28;20073;-82
2022/04/08 00:46:39;;;;;;;4.25;1.30;;;;;;;;;;5014930;28;20069;-81
2022/04/08 00:49:06;;;;;;;1.48;0.82;;;;;;;;;;5023125;28;20049;-81
2022/04/08 00:51:32;;;;;;;6.20;1.58;;;;;;;;;;5010973;28;20037;-81
2022/04/08 00:53:59;;;;;;;4.57;1.20;;;;;;;;;;5018334;28;20073;-82
2022/04/08 00:56:27;;;;;;;5.15;1.30;;;;;;;;;;5020091;28;20065;-81
2022/04/08 00:58:55;;;;;;;7.07;1.50;;;;;;;;;;5012962;28;20565;-81
2022/04/08 01:01:23;;;;;;;4.90;1.23;;;;;;;;;;5006332;28;20096;-81
2022/04/08 01:03:52;;;;;;;8.48;1.02;;;;;;;;;;5013600;28;20408;-81
2022/04/08 01:06:22;;;;;;;3.47;1.42;;;;;;;;;;5013761;28;20052;-81
2022/04/08 01:08:50;;;;;;;6.57;1.48;;;;;;;;;;5015732;28;20042;-81
2022/04/08 01:11:17;;;;;;;5.47;1.92;;;;;;;;;;5013999;28;20125;-81
2022/04/08 01:13:43;;;;;;;6.05;1.50;;;;;;;;;;5016459;28;20034;-80
2022/04/08 01:16:11;;;;;;;5.10;1.17;;;;;;;;;;5013066;28;20492;-81
2022/04/08 01:18:38;;;;;;;6.32;1.10;;;;;;;;;;5014791;28;20048;-82
2022/04/08 01:21:06;;;;;;;10.85;1.83;;;;;;;;;;5016663;28;20057;-81
2022/04/08 01:23:34;;;;;;;4.28;1.38;;;;;;;;;;5016210;28;20136;-81
2022/04/08 01:26:04;;;;;;;7.88;1.77;;;;;;;;;;5022391;28;20030;-81
2022/04/08 01:28:30;;;;;;;5.60;1.17;;;;;;;;;;5021731;28;20104;-81
2022/04/08 01:30:57;;;;;;;5.10;1.38;;;;;;;;;;5023378;28;20081;-80
2022/04/08 01:33:23;;;;;;;4.68;1.58;;;;;;;;;;5014896;28;20045;-80
2022/04/08 01:35:50;;;;;;;5.35;1.17;;;;;;;;;;5014381;28;20069;-80
2022/04/08 01:38:16;;;;;;;10.45;1.65;;;;;;;;;;5017008;28;20084;-80
2022/04/08 01:40:43;;;;;;;6.10;1.70;;;;;;;;;;5026454;28;20038;-80
2022/04/08 01:43:11;;;;;;;3.95;0.93;;;;;;;;;;5015337;28;20137;-80
2022/04/08 01:45:38;;;;;;;6.15;1.17;;;;;;;;;;5015767;28;20095;-80
2022/04/08 01:48:06;;;;;;;6.30;1.33;;;;;;;;;;5016976;28;20148;-80
2022/04/08 01:50:33;;;;;;;9.77;2.63;;;;;;;;;;5015902;28;20103;-81
2022/04/08 01:53:00;;;;;;;4.25;1.10;;;;;;;;;;5018338;28;20073;-80
2022/04/08 01:55:26;;;;;;;8.13;1.45;;;;;;;;;;5015456;28;20076;-80
2022/04/08 01:57:53;;;;;;;6.65;1.95;;;;;;;;;;5015583;28;20483;-80
2022/04/08 02:00:20;;;;;;;5.05;1.50;;;;;;;;;;5016415;28;20085;-80
2022/04/08 02:02:47;;;;;;;5.40;1.10;;;;;;;;;;5013816;28;20363;-80
2022/04/08 02:05:14;;;;;;;6.65;1.67;;;;;;;;;;5018827;28;20069;-81
2022/04/08 02:07:40;;;;;;;3.20;1.35;;;;;;;;;;5020779;28;20087;-81
2022/04/08 02:10:08;;;;;;;6.38;1.60;;;;;;;;;;5004847;28;20096;-80
2022/04/08 02:12:35;;;;;;;5.20;1.20;;;;;;;;;;5010912;28;20080;-80
2022/04/08 02:15:01;;;;;;;6.10;1.90;;;;;;;;;;5012519;28;20317;-80
2022/04/08 02:17:31;;;;;;;3.83;1.02;;;;;;;;;;5009552;28;20133;-80
2022/04/08 02:19:58;;;;;;;3.22;0.90;;;;;;;;;;5012165;28;20125;-80
2022/04/08 02:22:26;;;;;;;3.75;1.45;;;;;;;;;;5005182;28;20084;-80
2022/04/08 02:24:53;;;;;;;4.53;1.30;;;;;;;;;;5010265;28;20131;-80
2022/04/08 02:27:22;;;;;;;5.55;1.27;;;;;;;;;;5013277;28;20549;-80
2022/04/08 02:29:48;;;;;;;5.75;1.80;;;;;;;;;;5013085;28;20117;-80
2022/04/08 02:32:15;;;;;;;7.05;1.60;;;;;;;;;;5011809;28;20069;-80
2022/04/08 02:34:44;;;;;;;3.58;1.20;;;;;;;;;;5014420;28;20041;-80
2022/04/08 02:37:10;;;;;;;10.30;2.10;;;;;;;;;;5009880;28;20125;-80
2022/04/08 02:39:37;;;;;;;6.95;1.65;;;;;;;;;;5013064;28;20180;-81
2022/04/08 02:42:04;;;;;;;8.90;1.75;;;;;;;;;;5012906;28;20069;-80
2022/04/08 02:44:31;;;;;;;7.20;1.52;;;;;;;;;;5015032;28;20045;-80
2022/04/08 02:46:57;;;;;;;3.88;1.08;;;;;;;;;;5011524;28;20437;-80
2022/04/08 02:49:24;;;;;;;3.97;1.83;;;;;;;;;;5011728;28;20104;-80
2022/04/08 02:51:52;;;;;;;6.15;1.45;;;;;;;;;;5010392;28;20069;-81
2022/04/08 02:54:19;;;;;;;3.08;0.95;;;;;;;;;;5010037;28;20088;-80
2022/04/08 02:56:45;;;;;;;5.05;1.85;;;;;;;;;;5012027;28;20046;-80
2022/04/08 02:59:12;;;;;;;6.72;1.52;;;;;;;;;;5013388;28;20077;-81
2022/04/08 03:01:39;;;;;;;3.65;1.52;;;;;;;;;;5013156;28;20072;-80
2022/04/08 03:04:06;;;;;;;5.57;1.40;;;;;;;;;;5012987;28;20053;-80
2022/04/08 03:06:33;;;;;;;10.02;1.52;;;;;;;;;;5011669;28;20042;-80
2022/04/08 03:09:01;;;;;;;3.92;1.35;;;;;;;;;;5012462;28;20398;-80
2022/04/08 03:11:28;;;;;;;6.82;1.65;;;;;;;;;;5011844;28;20440;-80
2022/04/08 03:13:59;;;;;;;6.47;1.25;;;;;;;;;;5013341;28;20073;-80
2022/04/08 03:16:25;;;;;;;6.35;1.58;;;;;;;;;;5013092;28;20120;-81
2022/04/08 03:18:52;;;;;;;7.07;1.80;;;;;;;;;;5013752;28;20076;-80
2022/04/08 03:21:18;;;;;;;3.22;0.88;;;;;;;;;;5013274;28;20070;-80
2022/04/08 03:23:45;;;;;;;2.25;1.15;;;;;;;;;;5020177;28;20659;-80
2022/04/08 03:26:13;;;;;;;3.17;1.25;;;;;;;;;;5009719;28;20054;-81
2022/04/08 03:28:40;;;;;;;6.13;1.85;;;;;;;;;;5009551;28;20441;-80
2022/04/08 03:31:06;;;;;;;5.05;1.30;;;;;;;;;;5016980;28;20043;-80
2022/04/08 03:33:33;;;;;;;6.00;1.10;;;;;;;;;;5017105;28;20065;-80
2022/04/08 03:36:00;;;;;;;6.60;1.33;;;;;;;;;;5009768;28;20077;-80
2022/04/08 03:38:26;;;;;;;6.65;0.80;;;;;;;;;;5012867;28;20042;-80
2022/04/08 03:40:53;;;;;;;6.90;1.50;;;;;;;;;;5013735;28;20041;-80
2022/04/08 03:43:21;;;;;;;6.32;1.33;;;;;;;;;;5014275;28;20096;-80
2022/04/08 03:45:48;;;;;;;4.07;1.50;;;;;;;;;;5011775;28;20516;-80
2022/04/08 03:48:14;;;;;;;4.18;0.98;;;;;;;;;;5012746;28;20506;-80
2022/04/08 03:50:41;;;;;;;6.13;1.05;;;;;;;;;;5015184;28;20076;-80
2022/04/08 03:53:12;;;;;;;5.03;1.30;;;;;;;;;;5012190;28;20148;-81
2022/04/08 03:55:39;;;;;;;4.32;1.33;;;;;;;;;;5009731;28;20501;-80
2022/04/08 03:58:05;;;;;;;5.30;1.33;;;;;;;;;;5010541;28;20080;-81
2022/04/08 04:00:33;;;;;;;6.90;1.63;;;;;;;;;;5010561;28;20069;-81
2022/04/08 04:03:00;;;;;;;3.70;1.00;;;;;;;;;;5011754;28;20038;-81
2022/04/08 04:05:26;;;;;;;7.50;1.27;;;;;;;;;;5015439;28;20103;-80
2022/04/08 04:07:53;;;;;;;2.63;1.25;;;;;;;;;;5028034;28;20154;-80
2022/04/08 04:10:19;;;;;;;3.67;1.20;;;;;;;;;;5013206;28;20088;-81
2022/04/08 04:12:46;;;;;;;2.72;0.98;;;;;;;;;;5009753;28;20076;-80
2022/04/08 04:15:13;;;;;;;2.55;1.45;;;;;;;;;;5004175;28;20066;-80
2022/04/08 04:17:41;;;;;;;2.75;1.13;;;;;;;;;;5013044;28;20556;-80
2022/04/08 04:20:09;;;;;;;2.90;0.70;;;;;;;;;;5016547;28;20049;-80
2022/04/08 04:22:36;;;;;;;4.55;1.00;;;;;;;;;;5018662;28;20038;-80
2022/04/08 04:25:02;;;;;;;1.50;0.60;;;;;;;;;;5018401;28;20603;-82
2022/04/08 04:27:35;;;;;;;1.33;0.68;;;;;;;;;;5013708;28;20049;-82
2022/04/08 04:30:01;;;;;;;3.83;0.80;;;;;;;;;;5019720;28;20046;-83
2022/04/08 04:32:28;;;;;;;1.65;0.68;;;;;;;;;;5021448;28;20076;-82
2022/04/08 04:34:57;;;;;;;4.38;0.80;;;;;;;;;;5029102;28;20119;-83
2022/04/08 04:37:23;;;;;;;2.45;0.85;;;;;;;;;;5026047;28;20045;-83
2022/04/08 04:39:50;;;;;;;6.88;1.10;;;;;;;;;;5018282;28;20050;-83
2022/04/08 04:42:18;;;;;;;4.05;0.90;;;;;;;;;;5013730;28;20143;-82
2022/04/08 04:44:44;;;;;;;1.98;0.77;;;;;;;;;;5020003;28;20077;-82
2022/04/08 04:47:11;;;;;;;3.33;0.77;;;;;;;;;;5020143;28;20122;-82
2022/04/08 04:49:38;;;;;;;4.57;0.93;;;;;;;;;;5017612;28;20133;-81
2022/04/08 04:52:09;;;;;;;3.28;0.90;;;;;;;;;;5019068;28;20077;-83
2022/04/08 04:54:37;;;;;;;3.80;1.02;;;;;;;;;;5016732;28;20030;-82
2022/04/08 04:57:04;;;;;;;1.90;0.70;;;;;;;;;;5017962;28;20045;-82
2022/04/08 04:59:31;;;;;;;5.85;0.88;;;;;;;;;;5017773;28;20069;-81
2022/04/08 05:01:58;;;;;;;5.03;1.98;;;;;;;;;;5018127;28;20490;-82
2022/04/08 05:04:25;;;;;;;2.30;1.20;;;;;;;;;;5003033;28;20124;-82
2022/04/08 05:06:55;;;;;;;3.38;0.98;;;;;;;;;;5018187;28;20042;-80
2022/04/08 05:09:23;;;;;;;4.82;1.00;;;;;;;;;;5019362;28;20054;-81
2022/04/08 05:11:56;;;;;;;2.97;0.80;;;;;;;;;;5016321;28;20045;-82
2022/04/08 05:14:24;;;;;;;4.10;1.00;;;;;;;;;;5017442;28;20042;-82
2022/04/08 05:16:58;;;;;;;3.78;1.10;;;;;;;;;;5018695;28;20047;-82
2022/04/08 05:19:24;;;;;;;3.03;0.98;;;;;;;;;;5014823;28;20088;-83
2022/04/08 05:21:52;;;;;;;6.38;1.23;;;;;;;;;;5015520;28;20068;-83
2022/04/08 05:24:19;;;;;;;6.75;2.22;;;;;;;;;;5016565;28;20471;-82
2022/04/08 05:26:47;;;;;;;5.47;2.42;;;;;;;;;;5016111;28;20104;-81
2022/04/08 05:29:14;;;;;;;4.35;2.10;;;;;;;;;;5014109;28;20092;-81
2022/04/08 05:31:40;;;;;;;6.05;2.05;;;;;;;;;;5018437;28;20029;-82
2022/04/08 05:34:07;;;;;;;4.38;1.45;;;;;;;;;;5014483;28;20069;-81
2022/04/08 05:36:34;;;;;;;4.75;1.73;;;;;;;;;;5016533;28;20135;-81
2022/04/08 05:39:00;;;;;;;6.03;2.15;;;;;;;;;;5016420;28;20038;-81
2022/04/08 05:41:27;;;;;;;6.95;2.30;;;;;;;;;;5018658;28;20207;-81
2022/04/08 05:43:55;;;;;;;5.78;1.90;;;;;;;;;;5014715;28;20088;-81
2022/04/08 05:46:22;;;;;;;4.00;2.00;;;;;;;;;;5016085;28;20083;-82
2022/04/08 05:48:48;;;;;;;7.45;1.85;;;;;;;;;;5015058;28;20042;-82
2022/04/08 05:51:15;;;;;;;8.52;2.58;;;;;;;;;;5015954;28;20291;-82
2022/04/08 05:53:41;;;;;;;6.47;2.92;;;;;;;;;;5020388;28;20085;-81
2022/04/08 05:56:08;;;;;;;5.57;2.55;;;;;;;;;;5019928;28;20045;-81
2022/04/08 05:58:34;;;;;;;6.40;2.10;;;;;;;;;;5014646;28;20470;-82
2022/04/08 06:01:02;;;;;;;3.60;1.15;;;;;;;;;;5016518;28;20084;-82
2022/04/08 06:03:29;;;;;;;4.53;1.30;;;;;;;;;;5017071;28;20097;-82
2022/04/08 06:05:56;;;;;;;7.07;1.23;;;;;;;;;;5015304;28;20050;-82
2022/04/08 06:08:23;;;;;;;6.70;1.15;;;;;;;;;;5013176;28;20646;-82
2022/04/08 06:10:49;;;;;;;5.20;1.50;;;;;;;;;;5019843;28;20069;-83
2022/04/08 06:13:17;;;;;;;4.45;1.58;;;;;;;;;;5007837;28;20062;-82
2022/04/08 06:15:43;;;;;;;4.55;1.67;;;;;;;;;;5011505;28;20555;-82
2022/04/08 06:18:15;;;;;;;6.40;1.13;;;;;;;;;;5014636;28;21088;-82
2022/04/08 06:20:49;;;;;;;3.42;1.50;;;;;;;;;;5014805;28;20040;-82
2022/04/08 06:23:15;;;;;;;5.10;1.27;;;;;;;;;;5020743;28;20069;-81
2022/04/08 06:25:42;;;;;;;5.00;1.20;;;;;;;;;;5012153;28;20069;-81
2022/04/08 06:28:09;;;;;;;4.40;1.10;;;;;;;;;;5013696;28;20164;-83
2022/04/08 06:30:38;;;;;;;3.83;1.13;;;;;;;;;;5017974;28;20462;-85
2022/04/08 06:33:06;;;;;;;7.32;1.98;;;;;;;;;;4997248;28;20154;-82
2022/04/08 06:35:35;;;;;;;4.57;1.42;;;;;;;;;;5013532;28;20454;-83
2022/04/08 06:38:04;;;;;;;4.68;0.93;;;;;;;;;;5010734;28;20077;-84
2022/04/08 06:40:32;;;;;;;5.82;1.17;;;;;;;;;;5022661;28;20072;-86
2022/04/08 06:43:00;;;;;;;7.28;1.10;;;;;;;;;;5014573;28;20121;-84
2022/04/08 06:45:27;;;;;;;2.60;0.80;;;;;;;;;;5012300;28;20042;-83
2022/04/08 06:47:54;;;;;;;3.85;0.80;;;;;;;;;;5012574;28;20062;-84
2022/04/08 06:50:21;;;;;;;7.68;1.63;;;;;;;;;;5013276;28;20046;-86
2022/04/08 06:52:49;;;;;;;4.00;1.55;;;;;;;;;;5024944;28;20038;-86
2022/04/08 06:55:16;;;;;;;4.95;1.65;;;;;;;;;;5023718;28;20180;-84
2022/04/08 06:57:43;;;;;;;3.13;1.00;;;;;;;;;;5012725;28;20122;-84
2022/04/08 07:00:11;;;;;;;5.38;1.88;;;;;;;;;;5013410;28;20103;-83
2022/04/08 07:02:38;;;;;;;4.28;1.35;;;;;;;;;;5015951;28;20073;-85
2022/04/08 07:05:07;;;;;;;3.55;1.10;;;;;;;;;;5012821;28;20092;-85
2022/04/08 07:07:34;;;;;;;3.63;0.90;;;;;;;;;;5012286;28;20073;-82
2022/04/08 07:10:04;;;;;;;4.63;1.30;;;;;;;;;;5028522;28;20041;-83
2022/04/08 07:12:31;;;;;;;4.35;1.10;;;;;;;;;;5011788;28;20429;-84
2022/04/08 07:14:57;;;;;;;3.92;1.60;;;;;;;;;;5012300;28;20072;-82
2022/04/08 07:17:28;;;;;;;3.42;1.00;;;;;;;;;;5016430;28;20049;-84
2022/04/08 07:19:55;;;;;;;4.05;1.15;;;;;;;;;;5014761;28;20073;-85
2022/04/08 07:22:22;;;;;;;2.13;0.93;;;;;;;;;;5015573;28;20076;-84
2022/04/08 07:24:49;;;;;;;2.92;1.17;;;;;;;;;;5016389;28;20071;-84
2022/04/08 07:27:18;;;;;;;4.95;1.30;;;;;;;;;;5015986;28;20058;-85
2022/04/08 07:29:44;;;;;;;4.20;1.25;;;;;;;;;;5016209;28;20322;-84
2022/04/08 07:32:11;;;;;;;5.30;1.10;;;;;;;;;;5017020;28;20379;-84
2022/04/08 07:34:38;;;;;;;3.55;1.25;;;;;;;;;;5019417;28;20038;-84
2022/04/08 07:37:04;;;;;;;1.75;1.10;;;;;;;;;;5017709;28;20537;-82
2022/04/08 07:39:31;;;;;;;4.30;1.13;;;;;;;;;;5008418;28;20054;-83
2022/04/08 07:41:58;;;;;;;5.80;1.20;;;;;;;;;;5015741;28;20478;-83
2022/04/08 07:44:26;;;;;;;2.47;1.00;;;;;;;;;;5019607;28;20065;-83
2022/04/08 07:46:53;;;;;;;7.40;1.50;;;;;;;;;;5016535;28;20430;-84
2022/04/08 07:49:20;;;;;;;2.50;0.98;;;;;;;;;;5018352;28;20073;-84
2022/04/08 07:51:46;;;;;;;3.22;0.80;;;;;;;;;;5014706;28;20081;-82
2022/04/08 07:54:13;;;;;;;2.13;1.00;;;;;;;;;;5014564;28;20045;-83
2022/04/08 07:56:39;;;;;;;2.85;0.98;;;;;;;;;;5016811;28;20052;-85
2022/04/08 07:59:06;;;;;;;3.78;1.27;;;;;;;;;;5014397;28;20299;-84
2022/04/08 08:01:34;;;;;;;2.80;0.85;;;;;;;;;;5014483;28;20506;-80
2022/04/08 08:04:00;;;;;;;3.50;1.15;;;;;;;;;;5013696;28;20070;-82
2022/04/08 08:06:27;;;;;;;1.85;0.75;;;;;;;;;;5009651;28;20521;-82
2022/04/08 08:08:55;;;;;;;4.53;0.95;;;;;;;;;;5011843;28;20656;-83
2022/04/08 08:11:21;;;;;;;4.93;0.85;;;;;;;;;;5014151;28;20045;-83
2022/04/08 08:13:48;;;;;;;3.50;0.70;;;;;;;;;;5012090;28;20061;-83
2022/04/08 08:16:15;;;;;;;5.10;1.05;;;;;;;;;;5013906;28;20038;-81
2022/04/08 08:18:43;;;;;;;2.53;1.42;;;;;;;;;;5012908;28;20073;-83
2022/04/08 08:21:10;;;;;;;3.10;0.98;;;;;;;;;;5013228;28;20096;-84
2022/04/08 08:23:36;;;;;;;3.33;1.02;;;;;;;;;;5012952;28;20429;-81
2022/04/08 08:26:03;;;;;;;3.38;1.08;;;;;;;;;;5012019;28;20074;-83
2022/04/08 08:28:29;;;;;;;2.67;0.85;;;;;;;;;;5012647;28;20076;-83
2022/04/08 08:30:56;;;;;;;4.53;1.15;;;;;;;;;;5013477;28;20042;-83
2022/04/08 08:33:22;;;;;;;3.05;0.98;;;;;;;;;;5013130;28;20108;-84
2022/04/08 08:35:51;;;;;;;3.00;0.98;;;;;;;;;;5014966;28;20363;-83
2022/04/08 08:38:17;;;;;;;3.20;1.15;;;;;;;;;;5012728;28;20503;-84
2022/04/08 08:40:45;;;;;;;3.22;1.27;;;;;;;;;;5013569;28;20070;-82
2022/04/08 08:43:17;;;;;;;3.78;0.90;;;;;;;;;;5009845;28;20121;-84
2022/04/08 08:45:44;;;;;;;5.13;0.90;;;;;;;;;;5017032;28;20045;-84
2022/04/08 08:48:11;;;;;;;4.25;1.08;;;;;;;;;;5011586;28;20484;-84
2022/04/08 08:50:39;;;;;;;3.38;0.80;;;;;;;;;;5011396;28;20092;-84
2022/04/08 08:53:08;;;;;;;2.05;0.65;;;;;;;;;;5010646;28;20073;-85
2022/04/08 08:55:34;;;;;;;3.03;1.17;;;;;;;;;;5011224;28;20235;-82
2022/04/08 08:58:01;;;;;;;2.97;1.08;;;;;;;;;;5000317;28;20077;-83
2022/04/08 09:00:27;;;;;;;1.77;0.90;;;;;;;;;;5019390;28;20085;-83
2022/04/08 09:02:54;;;;;;;2.17;0.88;;;;;;;;;;5018130;28;20521;-83
2022/04/08 09:05:21;;;;;;;3.83;0.90;;;;;;;;;;5016377;28;20097;-83
2022/04/08 09:07:56;;;;;;;3.58;1.13;;;;;;;;;;5017180;28;20046;-82
2022/04/08 09:10:30;;;;;;;2.30;1.20;;;;;;;;;;5015617;28;20064;-83
2022/04/08 09:12:57;;;;;;;3.88;0.93;;;;;;;;;;5012883;28;20046;-81
2022/04/08 09:15:24;;;;;;;1.75;0.90;;;;;;;;;;5017080;28;20053;-83
2022/04/08 09:17:51;;;;;;;3.33;0.95;;;;;;;;;;5016524;28;20053;-83
2022/04/08 09:20:18;;;;;;;3.08;1.00;;;;;;;;;;5016639;28;20076;-84
2022/04/08 09:22:53;;;;;;;1.77;0.70;;;;;;;;;;5017153;28;20481;-83
2022/04/08 09:25:20;;;;;;;2.30;1.00;;;;;;;;;;5016056;28;20081;-83
2022/04/08 09:27:47;;;;;;;3.13;1.73;;;;;;;;;;5016379;28;20069;-82
2022/04/08 09:30:19;;;;;;;2.28;1.00;;;;;;;;;;5017147;28;20042;-84
2022/04/08 09:32:45;;;;;;;4.07;1.25;;;;;;;;;;5016058;28;20101;-84
2022/04/08 09:35:16;;;;;;;2.00;0.90;;;;;;;;;;5014139;28;20073;-83
2022/04/08 09:37:43;;;;;;;1.70;0.88;;;;;;;;;;5013839;28;20065;-82
2022/04/08 09:40:11;;;;;;;1.83;0.90;;;;;;;;;;5016983;28;20080;-82
2022/04/08 09:42:43;;;;;;;3.38;0.80;;;;;;;;;;5014664;28;20096;-84
2022/04/08 09:45:11;;;;;;;2.28;0.98;;;;;;;;;;5014435;28;20084;-83
2022/04/08 09:47:38;;;;;;;3.90;1.00;;;;;;;;;;5012962;28;20128;-83
2022/04/08 09:50:05;;;;;;;2.15;0.82;;;;;;;;;;5013859;28;20383;-83
2022/04/08 09:52:32;;;;;;;2.72;0.80;;;;;;;;;;5013859;28;20037;-84
2022/04/08 09:54:59;;;;;;;4.78;1.35;;;;;;;;;;5014102;28;20096;-83
2022/04/08 09:57:26;;;;;;;2.38;1.08;;;;;;;;;;5013356;28;20577;-83
2022/04/08 09:59:54;;;;;;;2.22;0.90;;;;;;;;;;5014526;28;20069;-84
2022/04/08 10:02:24;;;;;;;2.97;0.75;;;;;;;;;;5014303;28;20078;-84
2022/04/08 10:04:51;;;;;;;2.92;0.80;;;;;;;;;;5013981;28;20046;-86
2022/04/08 10:07:18;;;;;;;1.77;0.70;;;;;;;;;;5011707;28;20081;-83
2022/04/08 10:09:50;;;;;;;1.65;0.60;;;;;;;;;;5015180;28;20128;-85
2022/04/08 10:12:28;;;;;;;2.40;1.30;;;;;;;;;;5013108;28;20054;-84
2022/04/08 10:15:03;;;;;;;1.73;0.73;;;;;;;;;;5015352;28;20423;-84
2022/04/08 10:17:31;;;;;;;1.10;0.63;;;;;;;;;;5015284;28;20472;-82
2022/04/08 10:20:16;;;;;;;2.40;1.38;;;;;;;;;;5010827;28;20576;-82
2022/04/08 10:22:42;;;;;;;2.60;1.40;;;;;;;;;;5010807;28;20446;-82
2022/04/08 10:25:15;;;;;;;2.33;1.40;;;;;;;;;;5006977;28;20104;-82
2022/04/08 10:27:43;;;;;;;3.75;1.98;;;;;;;;;;5012522;28;20101;-81
2022/04/08 10:30:14;;;;;;;3.17;1.55;;;;;;;;;;5013244;28;20101;-81
2022/04/08 10:32:44;;;;;;;3.35;1.55;;;;;;;;;;4981733;28;20124;-82
2022/04/08 10:35:18;;;;;;;4.30;2.60;;;;;;;;;;5003380;28;20442;-82
2022/04/08 10:37:55;;;;;;;3.95;1.70;;;;;;;;;;5001192;28;20563;-82
2022/04/08 10:40:22;;;;;;;5.53;2.47;;;;;;;;;;5003828;28;20065;-81
2022/04/08 10:42:57;;;;;;;3.67;1.30;;;;;;;;;;5000891;28;20116;-81
2022/04/08 10:45:24;;;;;;;7.03;3.83;;;;;;;;;;5008970;28;20100;-82
2022/04/08 10:47:52;;;;;;;3.63;1.55;;;;;;;;;;5007037;28;20072;-81
2022/04/08 10:50:26;;;;;;;2.75;1.40;;;;;;;;;;5006706;28;20522;-82
2022/04/08 10:53:04;;;;;;;3.78;1.75;;;;;;;;;;5001786;28;20041;-81
2022/04/08 10:55:31;;;;;;;3.63;1.73;;;;;;;;;;5000854;28;20415;-82
2022/04/08 10:57:59;;;;;;;2.90;1.70;;;;;;;;;;5002691;28;20145;-81
2022/04/08 11:00:26;;;;;;;6.32;2.40;;;;;;;;;;5003667;28;20113;-81
2022/04/08 11:02:55;;;;;;;3.63;1.90;;;;;;;;;;5003317;28;20100;-81
2022/04/08 11:05:22;;;;;;;5.00;2.30;;;;;;;;;;5007964;28;20151;-82
2022/04/08 11:07:50;;;;;;;3.92;1.92;;;;;;;;;;5005587;28;20074;-81
2022/04/08 11:10:18;;;;;;;4.97;2.40;;;;;;;;;;5010736;28;20081;-81
2022/04/08 11:13:07;;;;;;;3.92;2.30;;;;;;;;;;5005577;28;20581;-81
2022/04/08 11:15:33;;;;;;;4.53;2.60;;;;;;;;;;5008374;28;20080;-81
2022/04/08 11:18:01;;;;;;;5.03;2.17;;;;;;;;;;5006623;28;20085;-81
2022/04/08 11:20:28;;;;;;;5.35;2.30;;;;;;;;;;5008473;28;20498;-81
2022/04/08 11:22:56;;;;;;;3.70;2.05;;;;;;;;;;5010096;28;20058;-81
2022/04/08 11:25:24;;;;;;;2.22;1.40;;;;;;;;;;5005340;28;20050;-81
2022/04/08 11:27:59;;;;;;;3.78;1.77;;;;;;;;;;5005183;28;20070;-80
2022/04/08 11:30:26;;;;;;;5.45;2.28;;;;;;;;;;5003608;28;20100;-81
2022/04/08 11:32:52;;;;;;;3.45;1.83;;;;;;;;;;4998947;28;20081;-81
2022/04/08 11:35:21;;;;;;;2.78;1.55;;;;;;;;;;5006745;28;20050;-82
2022/04/08 11:37:47;;;;;;;2.03;1.40;;;;;;;;;;5005173;28;20049;-80
2022/04/08 11:40:17;;;;;;;3.85;1.65;;;;;;;;;;5004734;28;20486;-81
2022/04/08 11:42:44;;;;;;;1.75;1.23;;;;;;;;;;5009010;28;20073;-82
2022/04/08 11:45:11;;;;;;;3.28;1.20;;;;;;;;;;5010245;28;20056;-83
2022/04/08 11:47:40;;;;;;;3.78;1.10;;;;;;;;;;5005872;28;20491;-82
2022/04/08 11:50:09;;;;;;;2.67;1.13;;;;;;;;;;5004591;28;20059;-82
2022/04/08 11:52:38;;;;;;;2.10;0.93;;;;;;;;;;5010750;28;20061;-82
2022/04/08 11:55:06;;;;;;;2.83;0.80;;;;;;;;;;5004958;28;20070;-82
2022/04/08 11:57:34;;;;;;;1.80;1.08;;;;;;;;;;5008847;28;20454;-82
2022/04/08 12:00:04;;;;;;;1.67;1.05;;;;;;;;;;5011443;28;20042;-82
2022/04/08 12:02:31;;;;;;;2.10;0.90;;;;;;;;;;5003427;28;20038;-81
2022/04/08 12:04:58;;;;;;;1.23;0.70;;;;;;;;;;5011967;28;20054;-81
2022/04/08 12:07:28;;;;;;;1.20;0.70;;;;;;;;;;4997945;28;20085;-81
2022/04/08 12:09:56;;;;;;;1.10;0.68;;;;;;;;;;5006292;28;20126;-81
2022/04/08 12:12:24;;;;;;;0.90;0.55;;;;;;;;;;5009348;28;20097;-81
2022/04/08 12:14:51;;;;;;;1.17;0.60;;;;;;;;;;5006348;28;20042;-82
2022/04/08 12:17:17;;;;;;;1.05;0.40;;;;;;;;;;5000064;28;20077;-82
2022/04/08 12:19:47;;;;;;;1.45;0.60;;;;;;;;;;5003542;28;20144;-81
2022/04/08 12:22:16;;;;;;;2.15;0.30;;;;;;;;;;5010436;28;20668;-82
2022/04/08 12:24:43;;;;;;;4.13;1.70;;;;;;;;;;5003178;28;20069;-83
2022/04/08 12:27:17;;;;;;;2.78;1.20;;;;;;;;;;5005303;28;20112;-83
2022/04/08 12:29:45;;;;;;;1.70;0.60;;;;;;;;;;4999747;28;20050;-82
2022/04/08 12:32:16;;;;;;;1.50;0.60;;;;;;;;;;5005627;28;20108;-82
2022/04/08 12:34:43;;;;;;;0.63;0.32;;;;;;;;;;5005388;28;20050;-81
2022/04/08 12:37:10;;;;;;;1.90;0.70;;;;;;;;;;5008446;28;20070;-81
2022/04/08 12:39:36;;;;;;;2.00;0.77;;;;;;;;;;5010997;28;20037;-81
2022/04/08 12:42:05;;;;;;;1.42;0.80;;;;;;;;;;5011432;28;20117;-81
2022/04/08 12:44:33;;;;;;;1.35;0.73;;;;;;;;;;5012196;28;20124;-81
2022/04/08 12:47:00;;;;;;;1.05;0.68;;;;;;;;;;5010874;28;20458;-81
2022/04/08 12:49:26;;;;;;;0.82;0.40;;;;;;;;;;5008972;28;20125;-81
2022/04/08 12:51:53;;;;;;;3.70;1.80;;;;;;;;;;5015999;28;20072;-80
2022/04/08 12:54:20;;;;;;;2.78;1.40;;;;;;;;;;5013617;28;20069;-81
2022/04/08 12:56:46;;;;;;;1.38;0.40;;;;;;;;;;5012690;28;20132;-80
2022/04/08 12:59:14;;;;;;;1.50;1.10;;;;;;;;;;5015066;28;20069;-80
2022/04/08 13:01:43;;;;;;;2.13;1.15;;;;;;;;;;5012980;28;20045;-81
2022/04/08 13:04:09;;;;;;;2.63;1.10;;;;;;;;;;5012556;28;20073;-80
2022/04/08 13:06:36;;;;;;;0.68;0.50;;;;;;;;;;5012831;28;20089;-80
2022/04/08 13:09:03;;;;;;;1.17;0.68;;;;;;;;;;5012607;28;20683;-81
2022/04/08 13:11:29;;;;;;;0.88;0.50;;;;;;;;;;5011572;28;20042;-81
2022/04/08 13:13:56;;;;;;;0.70;0.40;;;;;;;;;;5010884;28;20085;-79
2022/04/08 13:16:22;;;;;;;1.73;0.57;;;;;;;;;;5011704;28;20071;-79
2022/04/08 13:18:51;;;;;;;1.42;0.65;;;;;;;;;;5012175;28;20069;-80
2022/04/08 13:21:18;;;;;;;0.60;0.40;;;;;;;;;;5008695;28;20041;-80
2022/04/08 13:23:45;;;;;;;1.05;0.80;;;;;;;;;;5011351;28;20046;-80
2022/04/08 13:26:11;;;;;;;1.55;0.40;;;;;;;;;;5012526;28;20080;-81
2022/04/08 13:28:38;;;;;;;0.80;0.50;;;;;;;;;;5015759;28;20066;-79
2022/04/08 13:31:04;;;;;;;0.38;0.35;;;;;;;;;;5015217;28;20073;-79
2022/04/08 13:33:31;;;;;;;0.95;0.50;;;;;;;;;;5013846;28;21353;-80
2022/04/08 13:36:00;;;;;;;1.20;0.65;;;;;;;;;;5015057;28;20121;-80
2022/04/08 13:38:27;;;;;;;1.65;0.88;;;;;;;;;;5015309;28;20125;-80
2022/04/08 13:40:55;;;;;;;1.55;0.75;;;;;;;;;;5015085;28;20042;-79
2022/04/08 13:43:21;;;;;;;0.20;0.20;;;;;;;;;;5019997;28;20050;-80
2022/04/08 13:45:49;;;;;;;0.25;0.10;;;;;;;;;;5013947;28;20111;-79
2022/04/08 13:48:15;;;;;;;1.27;0.30;;;;;;;;;;5005253;28;20330;-80
2022/04/08 13:50:42;;;;;;;1.80;0.40;;;;;;;;;;5013402;28;20069;-80
2022/04/08 13:53:10;;;;;;;0.68;0.32;;;;;;;;;;5012218;28;20137;-79
2022/04/08 13:55:36;;;;;;;0.32;0.30;;;;;;;;;;5009415;28;20104;-80
2022/04/08 13:58:03;;;;;;;0.38;0.30;;;;;;;;;;5010592;28;20073;-80
2022/04/08 14:00:29;;;;;;;0.65;0.30;;;;;;;;;;5006898;28;20077;-80
2022/04/08 14:02:56;;;;;;;0.98;0.38;;;;;;;;;;5011688;28;20295;-80
2022/04/08 14:05:22;;;;;;;0.50;0.30;;;;;;;;;;5009687;28;20076;-80
2022/04/08 14:07:49;;;;;;;0.52;0.20;;;;;;;;;;5014228;28;20065;-78
2022/04/08 14:10:18;;;;;;;0.35;0.20;;;;;;;;;;5012869;28;20077;-80
2022/04/08 14:12:44;;;;;;;0.20;0.20;;;;;;;;;;5011168;28;20483;-80
2022/04/08 14:15:11;;;;;;;1.05;0.43;;;;;;;;;;5013458;28;20096;-81
2022/04/08 14:17:38;;;;;;;0.25;0.25;;;;;;;;;;5013186;28;20124;-79
2022/04/08 14:20:05;;;;;;;0.28;0.20;;;;;;;;;;5014722;28;20092;-80
2022/04/08 14:22:32;;;;;;;0.52;0.40;;;;;;;;;;5014811;28;20042;-79
2022/04/08 14:24:58;;;;;;;0.75;0.38;;;;;;;;;;5012535;28;20077;-79
2022/04/08 14:27:26;;;;;;;0.65;0.60;;;;;;;;;;5009585;28;20073;-80
2022/04/08 14:29:53;;;;;;;1.70;0.70;;;;;;;;;;5014017;28;20073;-80
2022/04/08 14:32:20;;;;;;;0.95;0.50;;;;;;;;;;5011491;28;20612;-80
2022/04/08 14:34:46;;;;;;;0.70;0.38;;;;;;;;;;5012042;28;20129;-81
2022/04/08 14:37:13;;;;;;;0.30;0.30;;;;;;;;;;5011269;28;20129;-81
2022/04/08 14:39:39;;;;;;;0.75;0.50;;;;;;;;;;5012041;28;20064;-81
2022/04/08 14:42:06;;;;;;;1.15;0.40;;;;;;;;;;5011449;28;20155;-81
2022/04/08 14:44:34;;;;;;;0.47;0.30;;;;;;;;;;5011825;28;20069;-81
2022/04/08 14:47:01;;;;;;;1.27;0.40;;;;;;;;;;5011822;28;20085;-82
2022/04/08 14:49:28;;;;;;;1.35;0.45;;;;;;;;;;5009159;28;20110;-82